Time;durP1;ratioP1;P1;durP2;ratioP2;P2;SDS_P1;SDS_P2;PMS_P1;PMS_P2;Temp;Humidity;BMP_temperature;BMP_pressure;BME280_temperature;BME280_humidity;BME280_pressure;Samples;Min_cycle;Max_cycle;Signal;HPM_P1;HPM_P2
2022/02/27 00:02:18;;;;;;;9.07;8.17;;;0.60;99.90;;;;;;4966359;28;20499;-77
2022/02/27 00:04:44;;;;;;;8.33;7.53;;;0.60;99.90;;;;;;4972815;28;20439;-77
2022/02/27 00:07:13;;;;;;;14.17;8.53;;;0.50;99.90;;;;;;4953948;28;20458;-77
2022/02/27 00:09:39;;;;;;;10.67;8.73;;;0.50;99.90;;;;;;4971214;28;20545;-77
2022/02/27 00:12:07;;;;;;;15.40;8.73;;;0.50;99.90;;;;;;4956317;28;20462;-79
2022/02/27 00:14:34;;;;;;;11.10;9.97;;;0.50;99.90;;;;;;4971209;28;20636;-77
2022/02/27 00:17:01;;;;;;;12.87;10.17;;;0.50;99.90;;;;;;4976331;28;20434;-79
2022/02/27 00:19:28;;;;;;;14.93;10.97;;;0.50;99.90;;;;;;4968980;28;20455;-77
2022/02/27 00:21:54;;;;;;;12.63;10.37;;;0.50;99.90;;;;;;4977371;28;20490;-79
2022/02/27 00:24:23;;;;;;;12.37;9.53;;;0.50;99.90;;;;;;4974466;28;20488;-78
2022/02/27 00:26:50;;;;;;;11.60;9.97;;;0.50;99.90;;;;;;4974547;28;20442;-79
2022/02/27 00:29:17;;;;;;;15.00;9.90;;;0.50;99.90;;;;;;4958928;28;20473;-77
2022/02/27 00:31:44;;;;;;;11.53;9.43;;;0.40;99.90;;;;;;4967910;28;20513;-79
2022/02/27 00:34:11;;;;;;;12.17;10.17;;;0.40;99.90;;;;;;4953247;28;20453;-76
2022/02/27 00:36:40;;;;;;;11.30;9.97;;;0.50;99.90;;;;;;4972241;28;20445;-78
2022/02/27 00:39:06;;;;;;;11.77;9.90;;;0.50;99.90;;;;;;4972660;28;20469;-77
2022/02/27 00:41:38;;;;;;;11.77;10.47;;;0.40;99.90;;;;;;4975779;28;20480;-78
2022/02/27 00:44:05;;;;;;;11.73;10.13;;;0.30;99.90;;;;;;4954901;28;20453;-78
2022/02/27 00:46:32;;;;;;;13.00;10.50;;;0.30;99.90;;;;;;4973652;28;20440;-79
2022/02/27 00:48:59;;;;;;;14.23;10.93;;;0.30;99.90;;;;;;4959617;28;20465;-78
2022/02/27 00:51:26;;;;;;;12.87;10.33;;;0.30;99.90;;;;;;4973477;28;20433;-78
2022/02/27 00:53:54;;;;;;;11.90;10.80;;;0.30;99.90;;;;;;4958717;28;20445;-78
2022/02/27 00:56:20;;;;;;;11.23;10.13;;;0.30;99.90;;;;;;4954362;28;20450;-77
2022/02/27 00:58:50;;;;;;;14.47;10.50;;;0.30;99.90;;;;;;4957854;28;20490;-79
2022/02/27 01:01:18;;;;;;;18.70;11.13;;;0.30;99.90;;;;;;4954412;28;20474;-77
2022/02/27 01:03:45;;;;;;;11.33;9.60;;;0.30;99.90;;;;;;4974122;28;20919;-78
2022/02/27 01:06:12;;;;;;;11.60;10.30;;;0.20;99.90;;;;;;4959377;28;20986;-78
2022/02/27 01:08:39;;;;;;;12.60;10.27;;;0.20;99.90;;;;;;4973005;28;20469;-79
2022/02/27 01:11:06;;;;;;;12.27;10.20;;;0.20;99.90;;;;;;4958759;28;20500;-79
2022/02/27 01:13:37;;;;;;;12.80;10.23;;;0.20;99.90;;;;;;4955484;28;20456;-78
2022/02/27 01:16:06;;;;;;;10.93;9.83;;;0.20;99.90;;;;;;4975189;28;20441;-79
2022/02/27 01:18:33;;;;;;;10.90;9.90;;;0.10;99.90;;;;;;4970373;28;20465;-78
2022/02/27 01:21:02;;;;;;;11.50;10.37;;;0.10;99.90;;;;;;4974498;28;20477;-78
2022/02/27 01:23:29;;;;;;;15.27;10.10;;;0.10;99.90;;;;;;4973317;28;20435;-79
2022/02/27 01:25:56;;;;;;;15.47;10.53;;;0.10;99.90;;;;;;4952036;29;20450;-80
2022/02/27 01:28:23;;;;;;;12.57;10.37;;;0.10;99.90;;;;;;4955284;28;20712;-77
2022/02/27 01:30:50;;;;;;;12.87;10.30;;;0.10;99.90;;;;;;4954928;28;20449;-78
2022/02/27 01:33:18;;;;;;;10.40;9.40;;;0.10;99.90;;;;;;4951559;28;20446;-78
2022/02/27 01:35:45;;;;;;;11.30;10.10;;;0.10;99.90;;;;;;4971739;28;20430;-79
2022/02/27 01:38:14;;;;;;;13.30;10.40;;;0.00;99.90;;;;;;4955946;28;20470;-76
2022/02/27 01:40:41;;;;;;;12.00;10.77;;;0.00;99.90;;;;;;4956793;28;20469;-78
2022/02/27 01:43:08;;;;;;;12.43;11.10;;;0.00;99.90;;;;;;4955308;28;20476;-78
2022/02/27 01:45:35;;;;;;;10.87;9.80;;;0.00;99.90;;;;;;4957931;28;20970;-78
2022/02/27 01:48:02;;;;;;;10.63;9.53;;;0.00;99.90;;;;;;4985766;28;20461;-78
2022/02/27 01:50:30;;;;;;;10.70;9.67;;;0.00;99.90;;;;;;4959576;28;20450;-77
2022/02/27 01:52:57;;;;;;;13.50;10.17;;;0.00;99.90;;;;;;4955675;29;20459;-78
2022/02/27 01:55:24;;;;;;;13.03;10.47;;;0.00;99.90;;;;;;4977542;28;20427;-77
2022/02/27 01:57:51;;;;;;;14.43;10.23;;;0.10;99.90;;;;;;4975096;28;20465;-80
2022/02/27 02:00:18;;;;;;;10.90;9.77;;;0.00;99.90;;;;;;4954766;28;20452;-77
2022/02/27 02:02:47;;;;;;;11.00;9.90;;;0.10;99.90;;;;;;4984986;28;20484;-78
2022/02/27 02:05:16;;;;;;;11.93;10.17;;;0.00;99.90;;;;;;4954527;28;20963;-78
2022/02/27 02:07:44;;;;;;;13.10;9.80;;;0.00;99.90;;;;;;4956771;28;20457;-77
2022/02/27 02:10:11;;;;;;;11.57;9.93;;;0.00;99.90;;;;;;4959224;28;20962;-78
2022/02/27 02:12:42;;;;;;;10.53;9.50;;;0.00;99.90;;;;;;4955481;28;20447;-78
2022/02/27 02:15:11;;;;;;;13.53;9.87;;;0.00;99.90;;;;;;4958911;28;20954;-79
2022/02/27 02:17:39;;;;;;;10.70;9.70;;;0.00;99.90;;;;;;4955413;28;20454;-78
2022/02/27 02:20:09;;;;;;;10.87;9.83;;;0.00;99.90;;;;;;4983754;28;20594;-78
2022/02/27 02:22:46;;;;;;;10.30;9.37;;;0.00;99.90;;;;;;4954046;28;20504;-78
2022/02/27 02:25:13;;;;;;;11.63;10.43;;;0.00;99.90;;;;;;4971844;28;20434;-79
2022/02/27 02:27:40;;;;;;;10.80;9.80;;;0.00;99.90;;;;;;4957137;28;21043;-79
2022/02/27 02:30:09;;;;;;;14.50;10.00;;;0.00;99.90;;;;;;4959352;28;20474;-79
2022/02/27 02:32:57;;;;;;;11.07;10.07;;;0.00;99.90;;;;;;4956196;28;20513;-78
2022/02/27 02:35:27;;;;;;;11.33;10.17;;;-0.10;99.90;;;;;;4951649;28;20514;-78
2022/02/27 02:37:55;;;;;;;13.90;10.13;;;-0.10;99.90;;;;;;4957124;28;20473;-78
2022/02/27 02:40:23;;;;;;;11.07;9.80;;;-0.10;99.90;;;;;;4954139;28;20450;-78
2022/02/27 02:42:50;;;;;;;11.83;10.23;;;-0.10;99.90;;;;;;4985647;28;20569;-78
2022/02/27 02:45:17;;;;;;;10.97;9.97;;;-0.10;99.90;;;;;;4968582;28;20445;-76
2022/02/27 02:47:46;;;;;;;11.83;10.40;;;-0.20;99.90;;;;;;4955325;29;20447;-78
2022/02/27 02:50:15;;;;;;;11.23;10.13;;;-0.20;99.90;;;;;;4958464;28;20525;-77
2022/02/27 02:52:46;;;;;;;11.97;10.07;;;-0.20;99.90;;;;;;4956135;28;20460;-78
2022/02/27 02:55:15;;;;;;;12.43;10.37;;;-0.20;99.90;;;;;;4953668;28;20534;-78
2022/02/27 02:57:42;;;;;;;11.77;10.00;;;-0.30;99.90;;;;;;4976203;28;20438;-80
2022/02/27 03:00:11;;;;;;;15.33;10.17;;;-0.30;99.90;;;;;;4970819;28;20846;-78
2022/02/27 03:02:39;;;;;;;12.83;10.03;;;-0.30;99.90;;;;;;4965413;28;20472;-79
2022/02/27 03:05:07;;;;;;;10.77;9.53;;;-0.30;99.90;;;;;;4978177;28;20536;-78
2022/02/27 03:07:34;;;;;;;11.47;10.00;;;-0.40;99.90;;;;;;4969544;28;20999;-77
2022/02/27 03:10:03;;;;;;;11.57;10.07;;;-0.40;99.90;;;;;;4949378;29;20454;-77
2022/02/27 03:12:30;;;;;;;13.27;10.40;;;-0.40;99.90;;;;;;4966956;28;20451;-77
2022/02/27 03:14:57;;;;;;;11.03;9.97;;;-0.50;99.90;;;;;;4971829;28;20446;-76
2022/02/27 03:17:24;;;;;;;15.60;10.30;;;-0.50;99.90;;;;;;4966298;28;20445;-77
2022/02/27 03:19:50;;;;;;;12.53;9.90;;;-0.50;99.90;;;;;;4967288;28;20873;-76
2022/02/27 03:22:17;;;;;;;12.70;10.17;;;-0.50;99.90;;;;;;4966612;28;20554;-77
2022/02/27 03:24:44;;;;;;;12.27;11.03;;;-0.50;99.90;;;;;;4963761;28;20943;-78
2022/02/27 03:27:12;;;;;;;11.13;10.10;;;-0.50;99.90;;;;;;4944795;28;20447;-77
2022/02/27 03:29:39;;;;;;;14.33;10.10;;;-0.50;99.90;;;;;;4956742;28;20533;-78
2022/02/27 03:32:07;;;;;;;15.50;10.97;;;-0.50;99.90;;;;;;4952233;28;20454;-78
2022/02/27 03:34:34;;;;;;;11.13;10.03;;;-0.50;99.90;;;;;;4971478;28;20437;-78
2022/02/27 03:37:01;;;;;;;11.50;10.17;;;-0.50;99.90;;;;;;4952134;28;20494;-78
2022/02/27 03:39:28;;;;;;;11.80;10.53;;;-0.50;99.90;;;;;;4969835;28;20469;-78
2022/02/27 03:41:55;;;;;;;13.57;10.27;;;-0.50;99.90;;;;;;4971311;28;20509;-78
2022/02/27 03:44:23;;;;;;;10.97;9.83;;;-0.50;99.90;;;;;;4957528;28;20445;-78
2022/02/27 03:46:50;;;;;;;11.63;10.50;;;-0.50;99.90;;;;;;4972377;28;20481;-78
2022/02/27 03:49:17;;;;;;;11.43;10.23;;;-0.50;99.90;;;;;;4958712;28;20473;-78
2022/02/27 03:51:43;;;;;;;12.57;10.17;;;-0.50;99.90;;;;;;4966380;28;20480;-76
2022/02/27 03:54:10;;;;;;;14.70;10.40;;;-0.50;99.90;;;;;;4948649;28;20509;-77
2022/02/27 03:56:37;;;;;;;12.37;10.70;;;-0.50;99.90;;;;;;4966087;28;20453;-77
2022/02/27 03:59:04;;;;;;;10.33;9.47;;;-0.50;99.90;;;;;;4959480;28;20505;-78
2022/02/27 04:01:32;;;;;;;11.27;10.07;;;-0.50;99.90;;;;;;4979203;28;20480;-79
2022/02/27 04:04:00;;;;;;;10.90;9.90;;;-0.50;99.90;;;;;;4976503;28;20461;-78
2022/02/27 04:06:27;;;;;;;11.37;10.37;;;-0.50;99.90;;;;;;4971677;28;20534;-78
2022/02/27 04:08:54;;;;;;;16.27;10.10;;;-0.50;99.90;;;;;;4970501;28;20489;-77
2022/02/27 04:11:20;;;;;;;11.27;10.07;;;-0.50;99.90;;;;;;4976878;28;20984;-76
2022/02/27 04:13:47;;;;;;;11.43;10.23;;;-0.60;99.90;;;;;;4974235;28;20461;-77
2022/02/27 04:16:14;;;;;;;11.60;10.50;;;-0.50;99.90;;;;;;4975053;28;21002;-78
2022/02/27 04:18:42;;;;;;;11.37;10.00;;;-0.50;99.90;;;;;;4963180;28;20449;-78
2022/02/27 04:21:09;;;;;;;12.27;10.87;;;-0.60;99.90;;;;;;4974016;28;20441;-77
2022/02/27 04:23:36;;;;;;;11.53;10.43;;;-0.50;99.90;;;;;;4971701;28;20448;-77
2022/02/27 04:26:03;;;;;;;11.33;10.20;;;-0.50;99.90;;;;;;4965166;28;20853;-77
2022/02/27 04:28:30;;;;;;;11.70;10.53;;;-0.50;99.90;;;;;;4956025;28;21219;-78
2022/02/27 04:30:57;;;;;;;13.77;10.63;;;-0.60;99.90;;;;;;4957234;28;20469;-77
2022/02/27 04:33:23;;;;;;;13.20;10.33;;;-0.60;99.90;;;;;;4973518;28;20434;-77
2022/02/27 04:35:52;;;;;;;14.70;10.53;;;-0.60;99.90;;;;;;4950601;28;20469;-78
2022/02/27 04:38:18;;;;;;;13.97;11.10;;;-0.60;99.90;;;;;;4970007;28;20786;-78
2022/02/27 04:40:46;;;;;;;13.83;10.13;;;-0.60;99.90;;;;;;4977320;28;20456;-83
2022/02/27 04:43:13;;;;;;;10.60;9.67;;;-0.60;99.90;;;;;;4984382;28;20902;-83
2022/02/27 04:45:40;;;;;;;13.00;10.40;;;-0.60;99.90;;;;;;4984348;28;20467;-78
2022/02/27 04:48:07;;;;;;;11.63;10.27;;;-0.60;99.90;;;;;;4983957;28;20460;-79
2022/02/27 04:50:34;;;;;;;12.10;10.47;;;-0.60;99.90;;;;;;4975155;28;20462;-78
2022/02/27 04:53:02;;;;;;;12.20;10.97;;;-0.50;99.90;;;;;;4974425;28;20513;-78
2022/02/27 04:55:29;;;;;;;11.70;10.70;;;-0.60;99.90;;;;;;4971951;28;20441;-77
2022/02/27 04:57:56;;;;;;;11.73;10.10;;;-0.60;99.90;;;;;;4950658;28;20537;-78
2022/02/27 05:00:22;;;;;;;12.07;10.87;;;-0.70;99.90;;;;;;4970751;28;20952;-78
2022/02/27 05:02:49;;;;;;;11.87;10.53;;;-0.60;99.90;;;;;;4964769;28;20991;-77
2022/02/27 05:05:16;;;;;;;12.03;10.73;;;-0.60;99.90;;;;;;4972626;28;20500;-78
2022/02/27 05:07:43;;;;;;;11.70;10.73;;;-0.60;99.90;;;;;;4948462;28;20458;-82
2022/02/27 05:10:12;;;;;;;12.37;11.13;;;-0.60;99.90;;;;;;4955312;28;20466;-77
2022/02/27 05:12:39;;;;;;;12.33;10.93;;;-0.70;99.90;;;;;;4975577;28;20494;-79
2022/02/27 05:15:08;;;;;;;11.13;10.13;;;-0.70;99.90;;;;;;4954220;28;20461;-77
2022/02/27 05:17:35;;;;;;;11.57;10.50;;;-0.70;99.90;;;;;;4960655;28;20568;-81
2022/02/27 05:20:02;;;;;;;13.40;10.53;;;-0.80;99.90;;;;;;4992602;28;20440;-81
2022/02/27 05:22:29;;;;;;;12.07;10.90;;;-0.80;99.90;;;;;;4971867;28;20516;-79
2022/02/27 05:24:56;;;;;;;12.90;11.17;;;-0.80;99.90;;;;;;4982900;28;21164;-80
2022/02/27 05:27:25;;;;;;;11.90;10.70;;;-0.80;99.90;;;;;;4959618;28;20461;-79
2022/02/27 05:29:52;;;;;;;12.60;11.27;;;-0.80;99.90;;;;;;4971613;28;20842;-80
2022/02/27 05:32:18;;;;;;;13.00;11.37;;;-0.80;99.90;;;;;;4964104;28;20449;-80
2022/02/27 05:34:45;;;;;;;11.87;10.63;;;-0.70;99.90;;;;;;4963530;28;20474;-80
2022/02/27 05:37:12;;;;;;;12.57;11.17;;;-0.70;99.90;;;;;;4980015;28;20441;-79
2022/02/27 05:39:39;;;;;;;17.33;12.13;;;-0.70;99.90;;;;;;4960042;28;20857;-78
2022/02/27 05:42:06;;;;;;;11.83;10.57;;;-0.80;99.90;;;;;;4961013;28;20537;-80
2022/02/27 05:44:35;;;;;;;14.03;11.30;;;-0.80;99.90;;;;;;4980805;28;20461;-79
2022/02/27 05:47:02;;;;;;;12.33;11.03;;;-0.80;99.90;;;;;;4979759;28;20448;-80
2022/02/27 05:49:29;;;;;;;13.27;11.47;;;-0.90;99.90;;;;;;4950768;28;20536;-78
2022/02/27 05:51:56;;;;;;;12.47;11.17;;;-0.90;99.90;;;;;;4982804;28;20927;-79
2022/02/27 05:54:23;;;;;;;12.03;10.83;;;-0.90;99.90;;;;;;4952389;28;20445;-79
2022/02/27 05:56:49;;;;;;;13.50;12.00;;;-0.90;99.90;;;;;;4983796;28;20498;-78
2022/02/27 05:59:16;;;;;;;12.17;11.00;;;-0.90;99.90;;;;;;4984408;28;20974;-80
2022/02/27 06:01:44;;;;;;;13.93;11.87;;;-1.00;99.90;;;;;;4974097;28;20438;-78
2022/02/27 06:04:11;;;;;;;16.10;11.00;;;-1.00;99.90;;;;;;4978040;28;20848;-78
2022/02/27 06:06:38;;;;;;;13.90;11.83;;;-1.00;99.90;;;;;;4954858;28;20573;-77
2022/02/27 06:09:05;;;;;;;14.27;12.07;;;-1.10;99.90;;;;;;4977547;28;20556;-78
2022/02/27 06:11:32;;;;;;;12.87;11.53;;;-1.10;99.90;;;;;;4953858;28;20581;-78
2022/02/27 06:13:59;;;;;;;16.30;11.77;;;-1.10;99.90;;;;;;4988788;28;20816;-77
2022/02/27 06:16:26;;;;;;;16.30;12.70;;;-1.10;99.90;;;;;;4996089;28;20452;-75
2022/02/27 06:18:54;;;;;;;14.27;12.03;;;-1.10;99.90;;;;;;4987531;28;20997;-77
2022/02/27 06:21:21;;;;;;;12.27;11.07;;;-1.20;99.90;;;;;;4980023;28;20445;-78
2022/02/27 06:23:47;;;;;;;14.37;11.07;;;-1.20;99.90;;;;;;4973159;28;20485;-78
2022/02/27 06:26:14;;;;;;;16.47;12.00;;;-1.20;99.90;;;;;;4961891;28;20461;-79
2022/02/27 06:28:41;;;;;;;15.93;11.63;;;-1.10;99.90;;;;;;4958580;28;20467;-81
2022/02/27 06:31:08;;;;;;;14.83;12.03;;;-1.00;99.90;;;;;;4988901;28;20437;-78
2022/02/27 06:33:36;;;;;;;13.20;12.00;;;-1.00;99.90;;;;;;4986759;28;20449;-80
2022/02/27 06:36:04;;;;;;;13.00;11.73;;;-0.90;99.90;;;;;;4980212;28;20445;-79
2022/02/27 06:38:31;;;;;;;15.13;13.03;;;-0.80;99.90;;;;;;4978206;28;20978;-78
2022/02/27 06:40:58;;;;;;;12.80;11.60;;;-0.80;99.90;;;;;;4983956;28;20485;-79
2022/02/27 06:43:26;;;;;;;14.07;12.77;;;-0.70;99.90;;;;;;4966076;28;20477;-79
2022/02/27 06:45:53;;;;;;;13.53;12.23;;;-0.60;99.90;;;;;;4984774;28;20463;-82
2022/02/27 06:48:20;;;;;;;14.67;12.73;;;-0.50;99.90;;;;;;4964561;28;20494;-81
2022/02/27 06:50:46;;;;;;;15.47;12.77;;;-0.40;99.90;;;;;;4977349;28;20449;-81
2022/02/27 06:53:15;;;;;;;15.43;13.03;;;-0.10;99.90;;;;;;4963453;28;20458;-81
2022/02/27 06:55:42;;;;;;;14.30;12.87;;;0.20;99.90;;;;;;4971204;28;20434;-79
2022/02/27 06:58:09;;;;;;;19.47;12.90;;;0.60;99.90;;;;;;4965245;28;20474;-81
2022/02/27 07:00:36;;;;;;;13.73;12.37;;;1.20;99.90;;;;;;4967414;28;20449;-83
2022/02/27 07:03:03;;;;;;;13.97;12.70;;;1.60;99.90;;;;;;4977822;28;20482;-80
2022/02/27 07:05:30;;;;;;;16.17;14.43;;;2.10;99.90;;;;;;4964196;29;20447;-82
2022/02/27 07:07:57;;;;;;;14.00;12.50;;;2.40;99.90;;;;;;4978068;28;20479;-79
2022/02/27 07:10:25;;;;;;;13.90;12.50;;;2.70;99.90;;;;;;4980369;28;21013;-82
2022/02/27 07:13:00;;;;;;;14.43;13.03;;;2.80;99.90;;;;;;4996615;28;20436;-83
2022/02/27 07:15:27;;;;;;;14.17;12.83;;;2.80;99.90;;;;;;4994263;28;20466;-85
2022/02/27 07:17:56;;;;;;;13.40;12.30;;;3.00;99.90;;;;;;4982669;28;20458;-82
2022/02/27 07:20:26;;;;;;;13.77;12.57;;;3.10;99.90;;;;;;4980469;28;20529;-83
2022/02/27 07:22:53;;;;;;;13.10;11.90;;;3.00;99.90;;;;;;4965095;28;20252;-81
2022/02/27 07:25:20;;;;;;;13.00;11.90;;;3.00;99.90;;;;;;4965467;28;20489;-81
2022/02/27 07:27:48;;;;;;;13.63;12.50;;;3.00;99.90;;;;;;4976014;28;20201;-81
2022/02/27 07:30:15;;;;;;;12.70;11.60;;;3.00;99.90;;;;;;4980074;28;20208;-79
2022/02/27 07:32:43;;;;;;;13.60;12.20;;;3.00;99.90;;;;;;4987921;28;20192;-77
2022/02/27 07:35:10;;;;;;;13.10;11.93;;;2.90;99.90;;;;;;4994413;28;20523;-78
2022/02/27 07:37:37;;;;;;;13.50;12.23;;;2.90;99.90;;;;;;4979954;28;20482;-79
2022/02/27 07:40:06;;;;;;;12.77;11.57;;;2.80;99.90;;;;;;4971589;28;20208;-79
2022/02/27 07:42:33;;;;;;;12.37;11.07;;;2.80;99.90;;;;;;4970741;28;20253;-79
2022/02/27 07:45:01;;;;;;;17.57;10.87;;;2.90;99.90;;;;;;4975237;28;20202;-80
2022/02/27 07:47:41;;;;;;;13.63;11.97;;;3.00;99.90;;;;;;4978957;28;20239;-79
2022/02/27 07:50:13;;;;;;;13.03;11.83;;;3.40;99.90;;;;;;4970373;28;20426;-81
2022/02/27 07:52:59;;;;;;;8.83;6.03;;;3.90;99.90;;;;;;4987980;28;20566;-82
2022/02/27 07:55:50;;;;;;;8.33;6.77;;;4.40;99.90;;;;;;4954953;28;20552;-80
2022/02/27 07:58:45;;;;;;;10.57;6.50;;;5.00;99.90;;;;;;4962962;28;20446;-82
2022/02/27 08:01:19;;;;;;;11.52;6.68;;;5.30;99.90;;;;;;4974445;28;20477;-80
2022/02/27 08:03:46;;;;;;;11.77;10.57;;;5.40;99.90;;;;;;4991639;28;20482;-78
2022/02/27 08:06:13;;;;;;;11.13;10.03;;;5.70;99.90;;;;;;4992994;28;20209;-79
2022/02/27 08:08:40;;;;;;;12.50;11.43;;;5.80;99.90;;;;;;4989867;28;20251;-81
2022/02/27 08:11:08;;;;;;;12.47;11.27;;;6.00;99.90;;;;;;4963159;28;20184;-80
2022/02/27 08:13:35;;;;;;;11.27;10.10;;;6.20;99.90;;;;;;4989274;28;20199;-78
2022/02/27 08:16:03;;;;;;;12.33;9.13;;;6.70;99.90;;;;;;4990718;28;20631;-81
2022/02/27 08:18:31;;;;;;;12.17;10.87;;;7.00;99.90;;;;;;4971124;28;20228;-79
2022/02/27 08:20:59;;;;;;;10.80;9.70;;;7.20;99.90;;;;;;4965962;28;20214;-79
2022/02/27 08:23:26;;;;;;;11.60;9.80;;;7.30;99.90;;;;;;4975035;28;20212;-79
2022/02/27 08:25:54;;;;;;;8.80;8.00;;;7.30;99.90;;;;;;4977389;28;20216;-76
2022/02/27 08:28:22;;;;;;;10.90;9.07;;;7.40;99.90;;;;;;4966013;28;20233;-80
2022/02/27 08:30:49;;;;;;;10.07;6.90;;;7.70;99.90;;;;;;4985619;28;20247;-80
2022/02/27 08:33:18;;;;;;;8.60;6.00;;;7.90;99.90;;;;;;4987237;28;20217;-80
2022/02/27 08:35:46;;;;;;;10.23;8.30;;;7.90;99.90;;;;;;4966336;28;20205;-80
2022/02/27 08:38:13;;;;;;;8.20;7.40;;;7.90;99.90;;;;;;4968399;28;20228;-80
2022/02/27 08:40:40;;;;;;;8.00;7.13;;;8.10;99.90;;;;;;4986404;28;20220;-80
2022/02/27 08:43:07;;;;;;;9.77;8.77;;;8.30;99.90;;;;;;4984155;28;20225;-79
2022/02/27 08:45:34;;;;;;;8.63;7.43;;;8.30;99.90;;;;;;4980584;28;20202;-79
2022/02/27 08:48:01;;;;;;;8.43;7.53;;;7.90;99.90;;;;;;4982580;28;20225;-80
2022/02/27 08:50:28;;;;;;;8.50;7.73;;;8.10;99.90;;;;;;4978476;28;20675;-80
2022/02/27 08:52:56;;;;;;;11.57;9.13;;;8.10;99.90;;;;;;4984579;28;20256;-80
2022/02/27 08:55:23;;;;;;;8.50;7.73;;;8.10;99.90;;;;;;4959341;28;20202;-82
2022/02/27 08:57:51;;;;;;;9.33;8.53;;;8.20;99.90;;;;;;4988906;28;20657;-79
2022/02/27 09:00:19;;;;;;;9.10;8.20;;;8.50;99.90;;;;;;4962053;28;20208;-80
2022/02/27 09:02:47;;;;;;;9.50;8.70;;;8.40;99.90;;;;;;4962196;28;21329;-80
2022/02/27 09:05:14;;;;;;;9.30;8.50;;;8.50;99.90;;;;;;4957535;28;20206;-79
2022/02/27 09:07:41;;;;;;;8.73;7.50;;;8.40;99.90;;;;;;4986291;28;20229;-79
2022/02/27 09:10:12;;;;;;;9.07;8.27;;;8.30;99.90;;;;;;4966870;28;20254;-78
2022/02/27 09:12:41;;;;;;;9.50;7.73;;;8.30;99.90;;;;;;4986628;28;20194;-78
2022/02/27 09:15:09;;;;;;;9.10;8.17;;;8.60;99.90;;;;;;4987656;28;20225;-78
2022/02/27 09:17:36;;;;;;;8.50;7.80;;;8.70;99.90;;;;;;4962068;28;20265;-77
2022/02/27 09:20:14;;;;;;;8.50;7.80;;;8.20;99.90;;;;;;4966068;28;20206;-81
2022/02/27 09:22:41;;;;;;;10.23;8.77;;;8.40;99.90;;;;;;4989234;28;20236;-79
2022/02/27 09:25:10;;;;;;;9.73;8.80;;;8.50;99.90;;;;;;4968049;28;20209;-81
2022/02/27 09:27:38;;;;;;;9.73;8.47;;;8.60;99.90;;;;;;4985665;28;20198;-80
2022/02/27 09:30:06;;;;;;;10.87;8.63;;;8.90;99.90;;;;;;4970227;28;20651;-80
2022/02/27 09:32:33;;;;;;;10.17;8.90;;;8.60;99.90;;;;;;4983414;28;20208;-79
2022/02/27 09:34:59;;;;;;;9.30;8.40;;;8.50;99.90;;;;;;4984776;28;20200;-79
2022/02/27 09:37:26;;;;;;;8.77;8.07;;;8.30;99.90;;;;;;4962485;28;20210;-79
2022/02/27 09:39:58;;;;;;;9.73;8.87;;;8.10;99.90;;;;;;4992428;28;20581;-77
2022/02/27 09:42:29;;;;;;;9.60;8.70;;;8.10;99.90;;;;;;4974901;28;20222;-78
2022/02/27 09:44:56;;;;;;;9.70;8.80;;;8.20;99.90;;;;;;4974217;28;20274;-78
2022/02/27 09:47:23;;;;;;;9.27;8.40;;;8.20;99.90;;;;;;4984916;28;20202;-79
2022/02/27 09:49:51;;;;;;;9.70;8.90;;;8.10;99.90;;;;;;4967402;28;20313;-80
2022/02/27 09:52:19;;;;;;;9.87;9.00;;;8.00;99.90;;;;;;4986234;28;20528;-78
2022/02/27 09:54:47;;;;;;;10.00;9.00;;;8.10;99.90;;;;;;4983258;28;20204;-80
2022/02/27 09:57:15;;;;;;;9.67;8.80;;;8.20;99.90;;;;;;4981021;28;20217;-80
2022/02/27 09:59:43;;;;;;;9.90;8.70;;;8.30;99.90;;;;;;4984690;28;20218;-81
2022/02/27 10:02:11;;;;;;;9.60;8.50;;;8.40;99.90;;;;;;4989050;28;20212;-77
2022/02/27 10:04:39;;;;;;;8.90;8.20;;;8.30;99.90;;;;;;4972234;28;20227;-79
2022/02/27 10:07:10;;;;;;;8.67;8.00;;;8.20;99.90;;;;;;4997050;28;20210;-78
2022/02/27 10:09:38;;;;;;;8.60;7.90;;;8.20;99.90;;;;;;4986243;28;20229;-80
2022/02/27 10:12:17;;;;;;;10.10;7.80;;;8.10;99.90;;;;;;4970376;28;20206;-79
2022/02/27 10:14:57;;;;;;;8.27;7.57;;;7.90;99.90;;;;;;4986015;28;20194;-80
2022/02/27 10:17:36;;;;;;;8.73;7.93;;;7.90;99.90;;;;;;4987296;28;20255;-80
2022/02/27 10:20:05;;;;;;;8.67;7.97;;;7.60;99.90;;;;;;4980629;28;20322;-78
2022/02/27 10:22:34;;;;;;;8.07;7.47;;;7.60;99.90;;;;;;4987818;28;20198;-82
2022/02/27 10:25:06;;;;;;;8.33;7.70;;;7.60;99.90;;;;;;4988707;28;20241;-80
2022/02/27 10:27:47;;;;;;;8.50;7.70;;;7.70;99.90;;;;;;4980847;28;20224;-80
2022/02/27 10:30:19;;;;;;;8.10;7.50;;;7.80;99.90;;;;;;4985082;28;20228;-80
2022/02/27 10:32:47;;;;;;;8.00;7.30;;;7.60;99.90;;;;;;4966233;28;20219;-80
2022/02/27 10:35:36;;;;;;;8.00;7.30;;;7.60;99.90;;;;;;4986709;28;20229;-80
2022/02/27 10:38:03;;;;;;;8.23;7.43;;;7.40;99.90;;;;;;4987486;28;20229;-79
2022/02/27 10:40:31;;;;;;;8.03;7.27;;;7.20;99.90;;;;;;4988299;28;20200;-80
2022/02/27 10:42:59;;;;;;;7.87;7.17;;;7.20;99.90;;;;;;4986382;28;20585;-81
2022/02/27 10:45:28;;;;;;;8.07;7.28;;;7.20;99.90;;;;;;4964354;28;20457;-77
2022/02/27 10:48:03;;;;;;;8.33;7.60;;;7.20;99.90;;;;;;4976417;28;20271;-77
2022/02/27 10:50:30;;;;;;;7.67;6.97;;;7.20;99.90;;;;;;4962225;28;20205;-78
2022/02/27 10:52:58;;;;;;;8.30;7.63;;;7.20;99.90;;;;;;4997039;28;20451;-80
2022/02/27 10:55:26;;;;;;;8.67;7.97;;;7.20;99.90;;;;;;4979505;28;20640;-79
2022/02/27 10:57:53;;;;;;;8.43;7.70;;;7.10;99.90;;;;;;4989817;28;20258;-80
2022/02/27 11:00:21;;;;;;;9.43;8.63;;;7.00;99.90;;;;;;5001131;28;20205;-80
2022/02/27 11:02:51;;;;;;;9.47;8.50;;;6.90;99.90;;;;;;4996225;28;20199;-79
2022/02/27 11:05:20;;;;;;;9.90;9.00;;;6.70;99.90;;;;;;4988825;28;20235;-79
2022/02/27 11:07:49;;;;;;;10.23;9.27;;;6.50;99.90;;;;;;4987514;28;20309;-77
2022/02/27 11:10:20;;;;;;;9.50;8.60;;;6.50;99.90;;;;;;4985931;28;20233;-80
2022/02/27 11:12:47;;;;;;;9.23;8.30;;;6.40;99.90;;;;;;4970856;28;20214;-79
2022/02/27 11:15:16;;;;;;;9.20;8.40;;;6.30;99.90;;;;;;5001349;28;20721;-78
2022/02/27 11:17:44;;;;;;;10.10;9.17;;;6.30;99.90;;;;;;4968616;28;20274;-80
2022/02/27 11:20:14;;;;;;;10.07;9.07;;;6.40;99.90;;;;;;4980061;28;20318;-81
2022/02/27 11:22:41;;;;;;;9.77;8.87;;;6.50;99.90;;;;;;4986378;28;20196;-82
2022/02/27 11:25:10;;;;;;;10.10;9.20;;;6.50;99.90;;;;;;4969543;28;21188;-80
2022/02/27 11:27:39;;;;;;;9.20;8.30;;;6.40;99.90;;;;;;4977828;28;20197;-80
2022/02/27 11:30:07;;;;;;;9.80;8.90;;;6.40;99.90;;;;;;4989264;28;20226;-79
2022/02/27 11:32:45;;;;;;;9.47;8.57;;;6.40;99.90;;;;;;4969638;28;20665;-80
2022/02/27 11:35:32;;;;;;;9.50;8.70;;;6.40;99.90;;;;;;4985083;28;20203;-80
2022/02/27 11:38:00;;;;;;;9.30;8.50;;;6.40;99.90;;;;;;4982454;28;20224;-80
2022/02/27 11:40:31;;;;;;;9.60;8.70;;;6.50;99.90;;;;;;4983191;28;20572;-80
2022/02/27 11:42:59;;;;;;;8.57;7.88;;;6.50;99.90;;;;;;4963697;28;20856;-81
2022/02/27 11:45:58;;;;;;;9.57;8.60;;;6.50;99.90;;;;;;4983954;28;20227;-81
2022/02/27 11:48:54;;;;;;;10.03;8.97;;;6.60;99.90;;;;;;4978125;28;20278;-81
2022/02/27 11:51:49;;;;;;;9.37;8.47;;;6.80;99.90;;;;;;4957485;28;20283;-77
2022/02/27 11:54:18;;;;;;;9.40;8.50;;;6.80;99.90;;;;;;4968072;28;20207;-80
2022/02/27 11:56:47;;;;;;;10.23;8.33;;;6.90;99.90;;;;;;4984752;28;20212;-80
2022/02/27 11:59:14;;;;;;;8.80;8.00;;;6.70;99.90;;;;;;4983767;28;20222;-78
2022/02/27 12:02:05;;;;;;;9.03;7.90;;;6.80;99.90;;;;;;4961157;28;20313;-79
2022/02/27 12:04:32;;;;;;;8.47;7.77;;;6.80;99.90;;;;;;4948747;28;20219;-80
2022/02/27 12:07:06;;;;;;;8.83;8.03;;;6.80;99.90;;;;;;4958169;28;20207;-83
2022/02/27 12:09:58;;;;;;;9.23;8.40;;;6.90;99.90;;;;;;5009584;23;20224;-78
2022/02/27 12:12:56;;;;;;;8.87;8.10;;;7.00;99.90;;;;;;4994685;28;20633;-79
2022/02/27 12:15:28;;;;;;;9.43;8.53;;;6.90;99.90;;;;;;4978575;28;20238;-79
2022/02/27 12:17:59;;;;;;;11.17;8.83;;;7.00;99.90;;;;;;4977312;28;20691;-78
2022/02/27 12:20:52;;;;;;;9.70;8.80;;;7.10;99.90;;;;;;4975314;28;20224;-77
2022/02/27 12:23:51;;;;;;;10.57;8.77;;;7.10;99.90;;;;;;4947837;28;20562;-78
2022/02/27 12:26:53;;;;;;;10.27;9.30;;;7.10;99.90;;;;;;4975314;28;20219;-78
2022/02/27 12:29:31;;;;;;;11.60;8.60;;;7.00;99.90;;;;;;4965240;28;20634;-79
2022/02/27 12:32:13;;;;;;;10.30;9.30;;;7.00;99.90;;;;;;4971555;28;20712;-77
2022/02/27 12:34:51;;;;;;;9.83;8.83;;;7.00;99.90;;;;;;4976872;28;20601;-77
2022/02/27 12:37:26;;;;;;;9.40;8.50;;;7.00;99.90;;;;;;4959219;28;20210;-78
2022/02/27 12:39:55;;;;;;;9.97;8.97;;;7.10;99.90;;;;;;4984671;28;20730;-82
2022/02/27 12:42:25;;;;;;;9.67;8.40;;;7.20;99.90;;;;;;4987609;28;20198;-82
2022/02/27 12:45:04;;;;;;;9.37;8.43;;;7.20;99.90;;;;;;4982617;28;20229;-79
2022/02/27 12:47:32;;;;;;;8.60;7.80;;;7.30;99.90;;;;;;4980663;28;20217;-79
2022/02/27 12:50:18;;;;;;;9.60;8.70;;;7.40;99.90;;;;;;4975386;28;20314;-81
2022/02/27 12:52:46;;;;;;;9.33;8.37;;;7.40;99.90;;;;;;4963371;28;20192;-80